createdAt,value
2019-02-15T00:00:49.328Z,99059.11
2019-02-15T00:03:18.827Z,99055.99
2019-02-15T00:05:48.603Z,99049.05
2019-02-15T00:08:18.116Z,99049.81
2019-02-15T00:10:47.635Z,99050.21
2019-02-15T00:13:17.214Z,99043.33
2019-02-15T00:15:46.743Z,99044.79
2019-02-15T00:18:25.494Z,99040.66
2019-02-15T00:21:06.699Z,99044.42
2019-02-15T00:23:36.293Z,99042.92
2019-02-15T00:26:05.895Z,99047.09
2019-02-15T00:28:35.380Z,99041.02
2019-02-15T00:31:05.773Z,99038.60
2019-02-15T00:33:35.342Z,99041.32
2019-02-15T00:36:04.942Z,99043.78
2019-02-15T00:38:34.459Z,99039.60
2019-02-15T00:41:04.010Z,99040.91
2019-02-15T00:43:33.602Z,99041.41
2019-02-15T00:46:17.842Z,99045.03
2019-02-15T00:48:47.393Z,99040.80
2019-02-15T00:51:35.912Z,99043.67
2019-02-15T00:54:12.196Z,99040.61
2019-02-15T00:56:59.358Z,99043.73
2019-02-15T00:59:36.031Z,99044.79
2019-02-15T01:02:21.888Z,99046.05
2019-02-15T01:05:00.076Z,99048.66
2019-02-15T01:08:03.728Z,99050.22
2019-02-15T01:11:01.352Z,99044.44
2019-02-15T01:13:31.412Z,99042.73
2019-02-15T01:16:00.916Z,99046.50
2019-02-15T01:18:30.469Z,99045.05
2019-02-15T01:20:59.959Z,99048.66
2019-02-15T01:23:29.449Z,99054.78
2019-02-15T01:26:16.920Z,99049.41
2019-02-15T01:28:58.737Z,99054.69
2019-02-15T01:31:37.039Z,99048.81
2019-02-15T01:34:27.898Z,99051.83
2019-02-15T01:37:28.265Z,99045.95
2019-02-15T01:40:15.243Z,99041.67
2019-02-15T01:43:00.856Z,99043.13
2019-02-15T01:45:36.666Z,99045.09
2019-02-15T01:48:06.169Z,99041.83
2019-02-15T01:50:35.639Z,99034.89
2019-02-15T01:53:05.136Z,99032.23
2019-02-15T01:55:34.627Z,99027.20
2019-02-15T01:58:04.107Z,99021.13
2019-02-15T02:00:34.550Z,99021.73
2019-02-15T02:03:04.118Z,99023.64
2019-02-15T02:05:33.616Z,99030.41
2019-02-15T02:08:03.961Z,99034.59
2019-02-15T02:10:33.508Z,99029.47
2019-02-15T02:13:03.098Z,99023.91
2019-02-15T02:15:32.655Z,99019.38
2019-02-15T02:18:02.140Z,99022.09
2019-02-15T02:20:31.637Z,99021.69
2019-02-15T02:23:01.919Z,99020.38
2019-02-15T02:25:31.440Z,99022.94
2019-02-15T02:28:00.943Z,99018.78
2019-02-15T02:30:30.507Z,99018.39
2019-02-15T02:33:00.059Z,99013.39
2019-02-15T02:35:29.580Z,99013.98
2019-02-15T02:37:59.098Z,99008.87
2019-02-15T02:40:28.657Z,99006.26
2019-02-15T02:42:58.157Z,99006.81
2019-02-15T02:45:27.754Z,99004.16
2019-02-15T02:47:57.270Z,99004.52
2019-02-15T02:50:26.747Z,99009.19
2019-02-15T02:52:56.219Z,99017.69
2019-02-15T02:55:25.715Z,99014.34
2019-02-15T02:58:01.379Z,99013.77
2019-02-15T03:00:33.632Z,99010.59
2019-02-15T03:03:02.355Z,99008.64
2019-02-15T03:05:31.937Z,99006.39
2019-02-15T03:08:01.485Z,99013.17
2019-02-15T03:10:31.050Z,99016.47
2019-02-15T03:13:00.563Z,99018.04
2019-02-15T03:15:30.094Z,99011.06
2019-02-15T03:17:59.638Z,99005.44
2019-02-15T03:20:31.579Z,99002.41
2019-02-15T03:23:00.548Z,99012.80
2019-02-15T03:25:30.115Z,99009.69
2019-02-15T03:27:59.634Z,99005.42
2019-02-15T03:30:29.266Z,99007.84
2019-02-15T03:32:58.770Z,99006.03
2019-02-15T03:35:28.311Z,99003.73
2019-02-15T03:38:12.275Z,99005.44
2019-02-15T03:40:44.501Z,99005.48
2019-02-15T03:43:14.086Z,99000.46
2019-02-15T03:45:44.630Z,99003.30
2019-02-15T03:48:14.414Z,99014.05
2019-02-15T03:50:43.918Z,99005.83
2019-02-15T03:53:13.407Z,99009.36
2019-02-15T03:55:43.001Z,99004.89
2019-02-15T03:58:12.569Z,99005.11
2019-02-15T04:00:42.157Z,99004.23
2019-02-15T04:03:11.810Z,99006.03
2019-02-15T04:05:41.612Z,99000.11
2019-02-15T04:08:11.239Z,99003.52
2019-02-15T04:10:40.893Z,98996.69
2019-02-15T04:13:11.411Z,98999.96
2019-02-15T04:15:41.040Z,99002.50
2019-02-15T04:18:10.624Z,98993.66
2019-02-15T04:20:40.177Z,98996.57
2019-02-15T04:23:09.708Z,98988.93
2019-02-15T04:25:39.307Z,98993.93
2019-02-15T04:28:08.895Z,98993.98
2019-02-15T04:30:38.536Z,98989.03
2019-02-15T04:33:08.037Z,98981.64
2019-02-15T04:35:37.570Z,98984.22
2019-02-15T04:38:07.095Z,98982.75
2019-02-15T04:40:36.639Z,98982.02
2019-02-15T04:43:06.261Z,98980.98
2019-02-15T04:45:35.770Z,98979.81
2019-02-15T04:48:05.298Z,98975.73
2019-02-15T04:50:34.914Z,98967.77
2019-02-15T04:53:04.427Z,98977.20
2019-02-15T04:55:34.038Z,98973.30
2019-02-15T04:58:03.537Z,98972.17
2019-02-15T05:00:33.064Z,98962.91
2019-02-15T05:03:02.663Z,98968.26
2019-02-15T05:05:32.273Z,98974.77
2019-02-15T05:08:01.821Z,98980.66
2019-02-15T05:10:31.356Z,98979.41
2019-02-15T05:13:00.875Z,98984.26
2019-02-15T05:15:30.563Z,98984.09
2019-02-15T05:18:00.233Z,98988.95
2019-02-15T05:20:29.746Z,98985.04
2019-02-15T05:22:59.249Z,98980.77
2019-02-15T05:25:28.822Z,98978.92
2019-02-15T05:27:58.400Z,98975.73
2019-02-15T05:30:27.968Z,98975.91
2019-02-15T05:32:57.567Z,98972.63
2019-02-15T05:35:27.200Z,98980.09
2019-02-15T05:37:56.761Z,98979.14
2019-02-15T05:40:26.400Z,98972.67
2019-02-15T05:42:55.929Z,98978.73
2019-02-15T05:45:25.578Z,98979.19
2019-02-15T05:47:55.118Z,98980.95
2019-02-15T05:50:24.743Z,98980.63
2019-02-15T05:52:54.279Z,98974.28
2019-02-15T05:55:23.898Z,98983.38
2019-02-15T05:57:53.444Z,98981.44
2019-02-15T06:00:23.104Z,98970.70
2019-02-15T06:02:52.740Z,98983.23
2019-02-15T06:05:22.280Z,98977.26
2019-02-15T06:07:51.859Z,98970.78
2019-02-15T06:10:21.496Z,98966.55
2019-02-15T06:12:51.112Z,98961.69
2019-02-15T06:15:20.710Z,98965.06
2019-02-15T06:17:50.303Z,98971.17
2019-02-15T06:20:19.846Z,98966.00
2019-02-15T06:22:49.418Z,98970.66
2019-02-15T06:25:19.121Z,98970.63
2019-02-15T06:27:48.680Z,98964.78
2019-02-15T06:30:18.315Z,98972.16
2019-02-15T06:32:48.058Z,98974.82
2019-02-15T06:35:17.580Z,98973.38
2019-02-15T06:37:47.198Z,98976.09
2019-02-15T06:40:16.950Z,98977.64
2019-02-15T06:42:46.502Z,98983.72
2019-02-15T06:45:24.277Z,98983.46
2019-02-15T06:47:47.359Z,98985.87
2019-02-15T06:50:16.969Z,98985.83
2019-02-15T06:52:46.621Z,98984.52
2019-02-15T06:55:16.190Z,98984.97
2019-02-15T06:57:45.834Z,98985.63
2019-02-15T07:00:33.171Z,98990.15
2019-02-15T07:03:16.728Z,98992.88
2019-02-15T07:05:46.346Z,98995.39
2019-02-15T07:08:16.079Z,98996.17
2019-02-15T07:10:45.688Z,99002.27
2019-02-15T07:13:15.251Z,99003.62
2019-02-15T07:15:44.933Z,98998.20
2019-02-15T07:18:14.587Z,98998.45
2019-02-15T07:20:44.203Z,99002.91
2019-02-15T07:23:13.794Z,99009.39
2019-02-15T07:25:43.430Z,99008.95
2019-02-15T07:28:13.051Z,99001.02
2019-02-15T07:30:42.576Z,99000.81
2019-02-15T07:33:12.248Z,98999.50
2019-02-15T07:35:41.923Z,99001.74
2019-02-15T07:38:11.609Z,99008.86
2019-02-15T07:40:41.162Z,99005.93
2019-02-15T07:43:10.852Z,99009.73
2019-02-15T07:45:42.841Z,99007.14
2019-02-15T07:48:11.830Z,99014.94
2019-02-15T07:50:41.699Z,99014.13
2019-02-15T07:53:11.394Z,99017.86
2019-02-15T07:55:41.060Z,99018.63
2019-02-15T07:58:10.694Z,99017.50
2019-02-15T08:00:40.317Z,99012.28
2019-02-15T08:03:38.136Z,99016.02
2019-02-15T08:05:55.485Z,99023.33
2019-02-15T08:08:25.058Z,99020.20
2019-02-15T08:10:54.594Z,99018.73
2019-02-15T08:13:31.280Z,99020.48
2019-02-15T08:16:02.806Z,99018.04
2019-02-15T08:18:32.171Z,99022.98
2019-02-15T08:21:01.753Z,99018.64
2019-02-15T08:23:31.311Z,99010.56
2019-02-15T08:26:00.909Z,99013.02
2019-02-15T08:28:30.414Z,99016.88
2019-02-15T08:30:59.953Z,99014.36
2019-02-15T08:33:29.520Z,99012.92
2019-02-15T08:35:59.100Z,99014.72
2019-02-15T08:38:28.693Z,99014.30
2019-02-15T08:40:58.275Z,99012.72
2019-02-15T08:43:27.966Z,99011.27
2019-02-15T08:46:01.556Z,99007.50
2019-02-15T08:48:28.796Z,99015.47
2019-02-15T08:51:00.956Z,99006.20
2019-02-15T08:53:30.649Z,99014.24
2019-02-15T08:56:00.569Z,99013.91
2019-02-15T08:58:30.212Z,99006.39
2019-02-15T09:01:00.245Z,99013.16
2019-02-15T09:03:29.864Z,99017.20
2019-02-15T09:05:59.505Z,99027.13
2019-02-15T09:08:30.056Z,99026.42
2019-02-15T09:10:59.779Z,99026.63
2019-02-15T09:13:30.234Z,99023.07
2019-02-15T09:15:59.746Z,99025.36
2019-02-15T09:18:29.253Z,99033.97
2019-02-15T09:20:58.848Z,99031.03
2019-02-15T09:23:28.530Z,99033.92
2019-02-15T09:25:58.239Z,99035.83
2019-02-15T09:28:35.861Z,99036.62
2019-02-15T09:31:05.404Z,99032.76
2019-02-15T09:33:35.009Z,99032.30
2019-02-15T09:36:04.537Z,99037.95
2019-02-15T09:38:34.181Z,99039.94
2019-02-15T09:41:03.809Z,99035.61
2019-02-15T09:43:33.347Z,99020.17
2019-02-15T09:46:02.841Z,99019.94
2019-02-15T09:48:32.425Z,99023.85
2019-02-15T09:51:01.979Z,99024.24
2019-02-15T09:53:31.522Z,99022.72
2019-02-15T09:56:01.139Z,99024.77
2019-02-15T09:58:30.628Z,99030.91
2019-02-15T10:01:20.268Z,99031.64
2019-02-15T10:07:19.579Z,99024.27
2019-02-15T10:09:49.206Z,99030.70
2019-02-15T10:12:18.749Z,99029.75
2019-02-15T10:14:48.372Z,99031.38
2019-02-15T10:17:17.951Z,99026.82
2019-02-15T10:19:47.463Z,99023.80
2019-02-15T10:22:16.984Z,99023.25
2019-02-15T10:24:46.491Z,99025.44
2019-02-15T10:27:16.078Z,99019.92
2019-02-15T10:29:45.598Z,99010.27
2019-02-15T10:32:15.131Z,99013.78
2019-02-15T10:34:44.729Z,99015.84
2019-02-15T10:37:14.336Z,99006.97
2019-02-15T10:39:43.982Z,99008.30
2019-02-15T10:42:13.707Z,99002.81
2019-02-15T10:44:43.297Z,99001.80
2019-02-15T10:47:15.749Z,98991.03
2019-02-15T10:49:44.097Z,98990.97
2019-02-15T10:52:15.913Z,98985.85
2019-02-15T10:54:45.491Z,98980.80
2019-02-15T10:57:15.025Z,98984.05
2019-02-15T10:59:44.546Z,98981.90
2019-02-15T11:02:14.129Z,98980.97
2019-02-15T11:04:43.705Z,98987.11
2019-02-15T11:07:13.373Z,98981.19
2019-02-15T11:09:42.874Z,98977.05
2019-02-15T11:12:12.420Z,98974.51
2019-02-15T11:14:41.994Z,98972.81
2019-02-15T11:17:11.488Z,98976.77
2019-02-15T11:19:41.012Z,98974.02
2019-02-15T11:22:10.614Z,98973.35
2019-02-15T11:24:40.169Z,98968.36
2019-02-15T11:27:09.653Z,98966.47
2019-02-15T11:29:39.267Z,98965.97
2019-02-15T11:32:08.933Z,98958.83
2019-02-15T11:34:38.509Z,98953.48
2019-02-15T11:37:08.051Z,98955.39
2019-02-15T11:39:37.561Z,98953.36
2019-02-15T11:42:07.187Z,98947.09
2019-02-15T11:44:36.692Z,98944.65
2019-02-15T11:47:06.331Z,98944.60
2019-02-15T11:49:35.958Z,98942.29
2019-02-15T11:52:05.496Z,98934.16
2019-02-15T11:54:35.045Z,98937.56
2019-02-15T11:57:04.573Z,98928.70
2019-02-15T11:59:34.245Z,98929.89
2019-02-15T12:02:06.503Z,98929.41
2019-02-15T12:04:35.256Z,98929.73
2019-02-15T12:07:04.881Z,98928.23
2019-02-15T12:09:34.430Z,98925.00
2019-02-15T12:12:10.385Z,98924.89
2019-02-15T12:14:35.365Z,98912.99
2019-02-15T12:17:06.094Z,98909.94
2019-02-15T12:19:35.600Z,98903.88
2019-02-15T12:22:05.243Z,98899.56
2019-02-15T12:24:34.934Z,98901.57
2019-02-15T12:27:04.970Z,98899.92
2019-02-15T12:29:34.471Z,98898.50
2019-02-15T12:32:04.004Z,98891.67
2019-02-15T12:34:33.535Z,98885.41
2019-02-15T12:37:03.054Z,98884.85
2019-02-15T12:39:32.648Z,98883.17
2019-02-15T12:42:02.305Z,98880.87
2019-02-15T12:44:31.903Z,98877.97
2019-02-15T12:47:01.729Z,98868.58
2019-02-15T12:49:31.321Z,98869.19
2019-02-15T12:52:00.827Z,98867.74
2019-02-15T12:54:30.407Z,98861.71
2019-02-15T12:56:59.917Z,98867.98
2019-02-15T12:59:29.481Z,98863.27
2019-02-15T13:01:59.092Z,98863.16
2019-02-15T13:04:28.603Z,98859.41
2019-02-15T13:06:58.221Z,98852.05
2019-02-15T13:09:27.814Z,98843.47
2019-02-15T13:11:57.649Z,98845.27
2019-02-15T13:14:27.200Z,98839.00
2019-02-15T13:16:56.947Z,98841.17
2019-02-15T13:19:26.470Z,98839.72
2019-02-15T13:21:56.083Z,98836.22
2019-02-15T13:24:25.725Z,98828.61
2019-02-15T13:26:55.391Z,98829.57
2019-02-15T13:29:25.007Z,98830.73
2019-02-15T13:31:54.692Z,98827.39
2019-02-15T13:34:24.301Z,98823.78
2019-02-15T13:36:53.850Z,98811.66
2019-02-15T13:39:23.508Z,98808.80
2019-02-15T13:41:53.239Z,98806.83
2019-02-15T13:44:22.767Z,98802.04
2019-02-15T13:46:52.512Z,98800.47
2019-02-15T13:49:22.062Z,98798.05
2019-02-15T13:51:51.655Z,98791.06
2019-02-15T13:54:21.332Z,98800.20
2019-02-15T13:56:50.877Z,98796.85
2019-02-15T13:59:20.515Z,98792.95
2019-02-15T14:01:50.142Z,98791.91
2019-02-15T14:04:19.661Z,98779.12
2019-02-15T14:06:56.057Z,98781.41
2019-02-15T14:09:25.898Z,98784.80
2019-02-15T14:11:55.545Z,98778.64
2019-02-15T14:14:25.125Z,98775.38
2019-02-15T14:16:54.710Z,98771.14
2019-02-15T14:19:24.405Z,98770.17
2019-02-15T14:21:53.915Z,98767.39
2019-02-15T14:24:23.536Z,98765.81
2019-02-15T14:26:53.152Z,98767.13
2019-02-15T14:29:22.810Z,98771.66
2019-02-15T14:31:52.426Z,98761.67
2019-02-15T14:34:21.950Z,98762.80
2019-02-15T14:36:51.670Z,98753.26
2019-02-15T14:39:21.226Z,98759.05
2019-02-15T14:41:50.775Z,98753.00
2019-02-15T14:44:20.406Z,98757.08
2019-02-15T14:46:50.016Z,98752.73
2019-02-15T14:49:19.580Z,98749.28
2019-02-15T14:51:49.213Z,98744.70
2019-02-15T14:54:18.830Z,98750.02
2019-02-15T14:56:48.478Z,98745.83
2019-02-15T14:59:18.137Z,98751.30
2019-02-15T15:01:47.743Z,98746.80
2019-02-15T15:04:17.394Z,98743.26
2019-02-15T15:06:47.142Z,98741.56
2019-02-15T15:09:16.708Z,98738.94
2019-02-15T15:11:46.309Z,98737.48
2019-02-15T15:14:15.927Z,98736.83
2019-02-15T15:16:45.513Z,98735.01
2019-02-15T15:19:15.048Z,98742.19
2019-02-15T15:21:44.691Z,98732.52
2019-02-15T15:24:14.317Z,98736.77
2019-02-15T15:26:43.865Z,98735.01
2019-02-15T15:29:13.443Z,98725.17
2019-02-15T15:31:43.104Z,98733.64
2019-02-15T15:34:12.802Z,98722.47
2019-02-15T15:36:43.032Z,98725.17
2019-02-15T15:39:12.713Z,98726.95
2019-02-15T15:41:42.311Z,98718.69
2019-02-15T15:44:11.905Z,98722.80
2019-02-15T15:46:41.497Z,98716.38
2019-02-15T15:49:11.097Z,98717.06
2019-02-15T15:51:40.674Z,98712.20
2019-02-15T15:54:10.241Z,98716.03
2019-02-15T15:56:39.852Z,98713.37
2019-02-15T15:59:09.480Z,98709.28
2019-02-15T16:01:39.184Z,98709.80
2019-02-15T16:04:08.799Z,98709.57
2019-02-15T16:06:38.357Z,98712.30
2019-02-15T16:09:08.298Z,98711.78
2019-02-15T16:11:38.047Z,98715.31
2019-02-15T16:14:07.683Z,98710.41
2019-02-15T16:16:37.237Z,98710.22
2019-02-15T16:19:06.876Z,98715.06
2019-02-15T16:21:36.416Z,98722.47
2019-02-15T16:24:12.302Z,98725.68
2019-02-15T16:26:37.225Z,98717.38
2019-02-15T16:29:06.819Z,98720.41
2019-02-15T16:31:36.416Z,98724.18
2019-02-15T16:34:06.002Z,98719.85
2019-02-15T16:36:35.582Z,98713.70
2019-02-15T16:39:05.855Z,98718.52
2019-02-15T16:41:35.403Z,98712.48
2019-02-15T16:44:04.903Z,98708.73
2019-02-15T16:46:34.436Z,98708.72
2019-02-15T16:49:03.950Z,98714.48
2019-02-15T16:51:33.552Z,98716.02
2019-02-15T16:54:03.178Z,98705.28
2019-02-15T16:56:32.774Z,98711.81
2019-02-15T16:59:02.367Z,98708.75
2019-02-15T17:01:31.852Z,98708.55
2019-02-15T17:04:01.376Z,98710.63
2019-02-15T17:06:30.979Z,98707.44
2019-02-15T17:09:00.497Z,98706.41
2019-02-15T17:11:30.030Z,98713.91
2019-02-15T17:13:59.574Z,98713.84
2019-02-15T17:16:29.202Z,98716.19
2019-02-15T17:18:58.724Z,98714.59
2019-02-15T17:21:28.280Z,98719.20
2019-02-15T17:23:57.889Z,98722.00
2019-02-15T17:26:27.610Z,98719.94
2019-02-15T17:28:57.149Z,98722.30
2019-02-15T17:31:26.693Z,98726.94
2019-02-15T17:33:56.268Z,98722.20
2019-02-15T17:36:25.901Z,98724.92
2019-02-15T17:38:55.591Z,98725.73
2019-02-15T17:41:25.136Z,98728.13
2019-02-15T17:43:54.685Z,98729.30
2019-02-15T17:46:24.301Z,98726.50
2019-02-15T17:49:00.487Z,98726.63
2019-02-15T17:51:25.266Z,98722.30
2019-02-15T17:53:54.833Z,98728.92
2019-02-15T17:56:24.479Z,98722.94
2019-02-15T17:58:54.066Z,98718.61
2019-02-15T18:01:23.600Z,98720.89
2019-02-15T18:03:53.150Z,98716.47
2019-02-15T18:06:22.728Z,98718.26
2019-02-15T18:08:52.336Z,98717.85
2019-02-15T18:11:21.898Z,98716.16
2019-02-15T18:13:51.482Z,98713.52
2019-02-15T18:16:21.186Z,98705.52
2019-02-15T18:18:50.732Z,98704.66
2019-02-15T18:21:20.480Z,98704.69
2019-02-15T18:23:50.028Z,98705.23
2019-02-15T18:26:19.853Z,98703.16
2019-02-15T18:28:49.490Z,98702.96
2019-02-15T18:31:19.059Z,98703.22
2019-02-15T18:33:48.612Z,98697.17
2019-02-15T18:36:18.188Z,98699.32
2019-02-15T18:38:48.124Z,98692.80
2019-02-15T18:41:17.816Z,98695.03
2019-02-15T18:43:47.435Z,98696.06
2019-02-15T18:46:17.056Z,98693.70
2019-02-15T18:48:46.742Z,98695.59
2019-02-15T18:51:16.397Z,98691.99
2019-02-15T18:53:45.986Z,98697.34
2019-02-15T18:56:15.680Z,98694.59
2019-02-15T18:58:47.093Z,98694.94
2019-02-15T19:01:16.836Z,98693.49
2019-02-15T19:03:46.545Z,98699.69
2019-02-15T19:06:16.232Z,98690.27
2019-02-15T19:08:45.911Z,98681.06
2019-02-15T19:11:15.473Z,98681.61
2019-02-15T19:13:45.122Z,98680.71
2019-02-15T19:16:14.783Z,98680.83
2019-02-15T19:18:44.480Z,98677.38
2019-02-15T19:21:14.095Z,98683.89
2019-02-15T19:23:43.640Z,98678.61
2019-02-15T19:26:13.247Z,98675.59
2019-02-15T19:28:42.776Z,98682.95
2019-02-15T19:31:12.345Z,98676.16
2019-02-15T19:33:41.961Z,98672.63
2019-02-15T19:36:11.565Z,98675.31
2019-02-15T19:38:41.543Z,98669.13
2019-02-15T19:41:11.177Z,98671.29
2019-02-15T19:43:40.689Z,98671.75
2019-02-15T19:46:10.273Z,98671.22
2019-02-15T19:48:39.812Z,98667.11
2019-02-15T19:51:09.333Z,98662.84
2019-02-15T19:53:38.946Z,98670.64
2019-02-15T19:56:08.558Z,98669.41
2019-02-15T19:58:38.175Z,98666.41
2019-02-15T20:01:07.761Z,98655.12
2019-02-15T20:03:37.323Z,98664.78
2019-02-15T20:06:06.951Z,98656.13
2019-02-15T20:08:36.595Z,98649.34
2019-02-15T20:11:06.147Z,98651.89
2019-02-15T20:13:35.715Z,98654.75
2019-02-15T20:16:05.359Z,98636.92
2019-02-15T20:18:34.902Z,98644.87
2019-02-15T20:21:04.426Z,98649.03
2019-02-15T20:23:34.149Z,98649.58
2019-02-15T20:26:03.764Z,98638.92
2019-02-15T20:28:33.597Z,98645.17
2019-02-15T20:31:03.109Z,98641.23
2019-02-15T20:33:33.039Z,98633.83
2019-02-15T20:36:02.663Z,98643.02
2019-02-15T20:38:32.190Z,98638.53
2019-02-15T20:41:01.706Z,98633.75
2019-02-15T20:43:31.284Z,98643.09
2019-02-15T20:46:00.882Z,98640.30
2019-02-15T20:48:30.733Z,98644.55
2019-02-15T20:51:00.358Z,98638.00
2019-02-15T20:53:30.002Z,98635.45
2019-02-15T20:55:59.633Z,98636.46
2019-02-15T20:58:29.247Z,98637.53
2019-02-15T21:00:58.866Z,98632.75
2019-02-15T21:03:28.406Z,98636.38
2019-02-15T21:05:58.040Z,98630.75
2019-02-15T21:08:27.588Z,98633.32
2019-02-15T21:10:57.348Z,98625.84
2019-02-15T21:13:26.931Z,98626.92
2019-02-15T21:15:56.733Z,98626.58
2019-02-15T21:18:26.307Z,98624.36
2019-02-15T21:20:56.256Z,98622.33
2019-02-15T21:23:25.995Z,98623.56
2019-02-15T21:25:55.693Z,98613.91
2019-02-15T21:28:25.319Z,98620.30
2019-02-15T21:30:54.869Z,98617.82
2019-02-15T21:33:24.392Z,98613.80
2019-02-15T21:35:53.944Z,98613.41
2019-02-15T21:38:23.455Z,98612.19
2019-02-15T21:40:52.950Z,98598.02
2019-02-15T21:43:22.511Z,98611.78
2019-02-15T21:45:52.053Z,98609.16
2019-02-15T21:48:21.586Z,98608.61
2019-02-15T21:50:51.112Z,98607.80
2019-02-15T21:53:20.728Z,98605.78
2019-02-15T21:55:50.336Z,98605.04
2019-02-15T21:58:21.152Z,98594.39
2019-02-15T22:00:50.684Z,98595.19
2019-02-15T22:03:20.288Z,98590.80
2019-02-15T22:05:49.824Z,98586.64
2019-02-15T22:08:19.417Z,98587.50
2019-02-15T22:10:48.953Z,98586.81
2019-02-15T22:13:18.454Z,98582.34
2019-02-15T22:15:47.976Z,98589.33
2019-02-15T22:18:17.471Z,98583.70
2019-02-15T22:20:47.042Z,98585.08
2019-02-15T22:23:16.566Z,98588.38
2019-02-15T22:25:46.300Z,98584.23
2019-02-15T22:28:15.849Z,98578.85
2019-02-15T22:30:45.379Z,98580.52
2019-02-15T22:33:14.902Z,98571.42
2019-02-15T22:35:44.419Z,98572.95
2019-02-15T22:38:13.966Z,98576.59
2019-02-15T22:40:44.937Z,98578.22
2019-02-15T22:43:19.821Z,98569.52
2019-02-15T22:45:49.440Z,98572.59
2019-02-15T22:48:19.030Z,98580.02
2019-02-15T22:50:48.765Z,98576.85
2019-02-15T22:53:18.355Z,98578.23
2019-02-15T22:55:47.884Z,98570.50
2019-02-15T22:58:17.390Z,98570.78
2019-02-15T23:01:21.421Z,98569.67
2019-02-15T23:03:51.028Z,98566.02
2019-02-15T23:06:20.646Z,98567.26
2019-02-15T23:08:50.220Z,98567.17
2019-02-15T23:11:19.717Z,98564.67
2019-02-15T23:13:49.247Z,98568.34
2019-02-15T23:16:18.882Z,98563.36
2019-02-15T23:18:48.414Z,98566.64
2019-02-15T23:21:18.041Z,98568.34
2019-02-15T23:23:47.595Z,98564.87
2019-02-15T23:26:17.206Z,98569.39
2019-02-15T23:28:46.785Z,98565.99
2019-02-15T23:31:16.433Z,98571.45
2019-02-15T23:33:45.988Z,98572.86
2019-02-15T23:36:15.601Z,98565.39
2019-02-15T23:38:45.277Z,98568.08
2019-02-15T23:41:14.915Z,98564.23
2019-02-15T23:43:44.456Z,98561.00
2019-02-15T23:46:14.069Z,98567.56
2019-02-15T23:48:43.684Z,98573.63
2019-02-15T23:51:13.519Z,98564.30
2019-02-15T23:53:43.062Z,98562.17
2019-02-15T23:56:12.598Z,98562.25
2019-02-15T23:58:42.207Z,98570.38
